Time;durP1;ratioP1;P1;durP2;ratioP2;P2;SDS_P1;SDS_P2;PMS_P1;PMS_P2;Temp;Humidity;BMP_temperature;BMP_pressure;BME280_temperature;BME280_humidity;BME280_pressure;Samples;Min_cycle;Max_cycle;Signal;HPM_P1;HPM_P2
2022/05/16 00:01:09;;;;;;;1.88;0.98;;;;;;;;;;5083281;28;20020;-45
2022/05/16 00:03:35;;;;;;;1.88;1.50;;;;;;;;;;5087311;28;20362;-46
2022/05/16 00:06:01;;;;;;;1.20;1.00;;;;;;;;;;5086939;28;20032;-47
2022/05/16 00:08:27;;;;;;;1.30;1.13;;;;;;;;;;5059534;28;20021;-46
2022/05/16 00:10:53;;;;;;;2.20;1.17;;;;;;;;;;5061626;28;20653;-46
2022/05/16 00:13:20;;;;;;;2.28;1.25;;;;;;;;;;5067119;28;20029;-45
2022/05/16 00:15:47;;;;;;;1.70;1.10;;;;;;;;;;5063104;28;20041;-45
2022/05/16 00:18:13;;;;;;;1.90;1.27;;;;;;;;;;5062583;28;20031;-45
2022/05/16 00:20:39;;;;;;;1.42;1.10;;;;;;;;;;5062064;28;20096;-45
2022/05/16 00:23:05;;;;;;;1.33;1.20;;;;;;;;;;5061163;28;20107;-45
2022/05/16 00:25:31;;;;;;;1.67;1.02;;;;;;;;;;5088816;28;20044;-51
2022/05/16 00:27:57;;;;;;;1.17;1.08;;;;;;;;;;5083237;28;20020;-47
2022/05/16 00:30:23;;;;;;;1.40;1.00;;;;;;;;;;5087563;28;20032;-44
2022/05/16 00:32:50;;;;;;;2.05;1.73;;;;;;;;;;5071656;28;20055;-44
2022/05/16 00:35:17;;;;;;;2.15;1.50;;;;;;;;;;5091473;28;20110;-46
2022/05/16 00:37:43;;;;;;;1.88;1.65;;;;;;;;;;5080846;28;20036;-47
2022/05/16 00:40:09;;;;;;;1.13;1.00;;;;;;;;;;5080629;28;20443;-45
2022/05/16 00:42:36;;;;;;;1.73;1.10;;;;;;;;;;5093753;28;20429;-51
2022/05/16 00:45:02;;;;;;;1.45;1.02;;;;;;;;;;5087200;28;20035;-45
2022/05/16 00:47:28;;;;;;;1.40;1.10;;;;;;;;;;5074978;28;20061;-45
2022/05/16 00:49:55;;;;;;;1.88;1.50;;;;;;;;;;5078078;28;20023;-45
2022/05/16 00:52:26;;;;;;;1.52;1.17;;;;;;;;;;5094014;28;20055;-46
2022/05/16 00:55:00;;;;;;;2.20;1.25;;;;;;;;;;5077007;28;20036;-45
2022/05/16 00:57:28;;;;;;;1.63;1.23;;;;;;;;;;5094550;28;20380;-46
2022/05/16 01:00:14;;;;;;;1.50;1.10;;;;;;;;;;5093647;28;20502;-47
2022/05/16 01:05:31;;;;;;;1.27;1.05;;;;;;;;;;5075357;28;20487;-44
2022/05/16 01:07:58;;;;;;;1.42;1.02;;;;;;;;;;5079074;28;20033;-45
2022/05/16 01:10:24;;;;;;;1.35;1.15;;;;;;;;;;5080935;28;20457;-47
2022/05/16 01:12:51;;;;;;;1.38;0.90;;;;;;;;;;5075984;28;20030;-46
2022/05/16 01:15:32;;;;;;;1.80;1.10;;;;;;;;;;5092589;28;20055;-45
2022/05/16 01:17:58;;;;;;;2.00;1.10;;;;;;;;;;5064079;28;20040;-46
2022/05/16 01:20:28;;;;;;;1.48;1.20;;;;;;;;;;5084677;28;20479;-47
2022/05/16 01:22:54;;;;;;;1.90;1.15;;;;;;;;;;5074826;28;20060;-47
2022/05/16 01:25:22;;;;;;;1.88;1.00;;;;;;;;;;5075198;28;20021;-48
2022/05/16 01:27:53;;;;;;;2.13;1.02;;;;;;;;;;5089796;28;20020;-46
2022/05/16 01:30:22;;;;;;;1.20;1.10;;;;;;;;;;5090786;28;20035;-47
2022/05/16 01:32:48;;;;;;;1.58;1.10;;;;;;;;;;5090000;28;20020;-47
2022/05/16 01:35:18;;;;;;;2.20;1.10;;;;;;;;;;5086551;28;20029;-45
2022/05/16 01:40:29;;;;;;;1.02;0.93;;;;;;;;;;5074514;28;20028;-45
2022/05/16 01:42:54;;;;;;;1.55;1.00;;;;;;;;;;5081521;28;20020;-44
2022/05/16 01:45:21;;;;;;;2.13;1.17;;;;;;;;;;5075212;28;20060;-46
2022/05/16 01:47:47;;;;;;;2.33;1.42;;;;;;;;;;5072724;28;20036;-46
2022/05/16 01:50:13;;;;;;;1.30;0.95;;;;;;;;;;5072952;28;20441;-45
2022/05/16 01:52:39;;;;;;;1.15;1.00;;;;;;;;;;5077653;28;20024;-53
2022/05/16 01:55:05;;;;;;;1.13;0.90;;;;;;;;;;5072351;28;20044;-47
2022/05/16 01:57:31;;;;;;;1.20;1.00;;;;;;;;;;5072234;28;20037;-47
2022/05/16 01:59:57;;;;;;;1.88;1.13;;;;;;;;;;5071581;28;20193;-45
2022/05/16 02:02:23;;;;;;;2.13;1.10;;;;;;;;;;5073019;28;20031;-44
2022/05/16 02:04:49;;;;;;;1.67;1.05;;;;;;;;;;5071503;28;20032;-46
2022/05/16 02:07:15;;;;;;;2.20;1.20;;;;;;;;;;5071981;28;20021;-45
2022/05/16 02:09:41;;;;;;;2.53;1.10;;;;;;;;;;5074076;28;20016;-45
2022/05/16 02:12:07;;;;;;;2.88;1.38;;;;;;;;;;5075914;28;20024;-44
2022/05/16 02:14:34;;;;;;;1.15;0.90;;;;;;;;;;5074058;28;20481;-48
2022/05/16 02:17:00;;;;;;;1.58;1.42;;;;;;;;;;5070923;28;20037;-49
2022/05/16 02:19:26;;;;;;;1.98;1.25;;;;;;;;;;5079200;28;20028;-44
2022/05/16 02:24:39;;;;;;;1.58;1.00;;;;;;;;;;5073896;28;20046;-51
2022/05/16 02:27:12;;;;;;;1.70;1.10;;;;;;;;;;5072401;28;20024;-47
2022/05/16 02:29:38;;;;;;;1.67;0.85;;;;;;;;;;5070998;28;20028;-49
2022/05/16 02:32:06;;;;;;;2.22;1.15;;;;;;;;;;5071892;28;20052;-46
2022/05/16 02:34:32;;;;;;;1.98;1.52;;;;;;;;;;5073609;28;20039;-45
2022/05/16 02:36:58;;;;;;;1.73;1.20;;;;;;;;;;5071542;28;20058;-48
2022/05/16 02:39:24;;;;;;;1.70;1.10;;;;;;;;;;5073219;28;20476;-45
2022/05/16 02:41:50;;;;;;;1.67;1.20;;;;;;;;;;5073154;28;20440;-48
2022/05/16 02:44:16;;;;;;;3.60;1.95;;;;;;;;;;5071578;28;20081;-45
2022/05/16 02:46:43;;;;;;;1.25;1.10;;;;;;;;;;5069905;28;20053;-49
2022/05/16 02:49:10;;;;;;;1.15;1.00;;;;;;;;;;5073622;28;20040;-48
2022/05/16 02:51:36;;;;;;;1.80;1.13;;;;;;;;;;5075503;28;20071;-53
2022/05/16 02:54:02;;;;;;;1.42;1.33;;;;;;;;;;5070746;28;20117;-45
2022/05/16 02:56:28;;;;;;;7.15;1.88;;;;;;;;;;5070905;28;20068;-45
2022/05/16 02:58:54;;;;;;;1.80;1.05;;;;;;;;;;5074196;28;20059;-46
2022/05/16 03:01:20;;;;;;;1.85;1.13;;;;;;;;;;5072216;28;20021;-52
2022/05/16 03:03:47;;;;;;;1.40;1.00;;;;;;;;;;5073432;28;20361;-47
2022/05/16 03:06:13;;;;;;;3.92;1.92;;;;;;;;;;5072536;28;20032;-45
2022/05/16 03:08:39;;;;;;;2.55;1.25;;;;;;;;;;5071696;28;20387;-50
2022/05/16 03:11:06;;;;;;;2.28;1.27;;;;;;;;;;5071097;28;20028;-45
2022/05/16 03:13:32;;;;;;;3.30;1.42;;;;;;;;;;5073862;28;20087;-48
2022/05/16 03:15:58;;;;;;;1.50;1.10;;;;;;;;;;5071915;28;20073;-47
2022/05/16 03:18:25;;;;;;;2.45;1.00;;;;;;;;;;5071434;28;20028;-48
2022/05/16 03:20:51;;;;;;;1.50;1.15;;;;;;;;;;5069907;28;20039;-49
2022/05/16 03:23:17;;;;;;;1.50;1.05;;;;;;;;;;5072830;28;20366;-50
2022/05/16 03:25:44;;;;;;;2.28;1.20;;;;;;;;;;5071414;28;20024;-46
2022/05/16 03:28:10;;;;;;;1.95;1.00;;;;;;;;;;5070408;28;20016;-50
2022/05/16 03:30:37;;;;;;;1.15;1.05;;;;;;;;;;5072657;28;20025;-49
2022/05/16 03:33:03;;;;;;;2.05;1.20;;;;;;;;;;5071224;28;20033;-46
2022/05/16 03:35:29;;;;;;;1.30;1.20;;;;;;;;;;5070562;28;20030;-49
2022/05/16 03:37:55;;;;;;;1.83;1.20;;;;;;;;;;5075130;28;20028;-50
2022/05/16 03:43:06;;;;;;;2.05;1.20;;;;;;;;;;5072831;28;20047;-45
2022/05/16 03:45:32;;;;;;;1.45;1.15;;;;;;;;;;5072376;28;20502;-46
2022/05/16 03:47:58;;;;;;;2.05;1.10;;;;;;;;;;5071023;28;20105;-45
2022/05/16 03:50:26;;;;;;;1.55;1.10;;;;;;;;;;5071216;28;20103;-45
2022/05/16 03:52:52;;;;;;;1.48;1.00;;;;;;;;;;5069161;28;20474;-45
2022/05/16 03:55:18;;;;;;;1.67;1.20;;;;;;;;;;5071980;28;20036;-45
2022/05/16 03:57:45;;;;;;;1.60;1.10;;;;;;;;;;5069468;28;20028;-46
2022/05/16 04:00:13;;;;;;;3.20;1.20;;;;;;;;;;5073007;28;20032;-47
2022/05/16 04:02:40;;;;;;;2.30;1.35;;;;;;;;;;5070022;28;20470;-52
2022/05/16 04:05:07;;;;;;;3.50;1.60;;;;;;;;;;5073212;28;20028;-46
2022/05/16 04:07:33;;;;;;;2.83;1.27;;;;;;;;;;5071429;28;20040;-45
2022/05/16 04:10:00;;;;;;;1.42;1.20;;;;;;;;;;5075535;28;20161;-48
2022/05/16 04:12:26;;;;;;;1.25;1.08;;;;;;;;;;5075787;28;20078;-47
2022/05/16 04:14:52;;;;;;;1.40;1.30;;;;;;;;;;5074967;28;20062;-45
2022/05/16 04:17:18;;;;;;;2.40;1.10;;;;;;;;;;5075628;28;20043;-45
2022/05/16 04:19:45;;;;;;;1.40;1.00;;;;;;;;;;5074321;28;20021;-49
2022/05/16 04:22:11;;;;;;;2.25;1.23;;;;;;;;;;5076752;28;20052;-47
2022/05/16 04:24:37;;;;;;;2.47;1.35;;;;;;;;;;5077265;28;20075;-51
2022/05/16 04:27:04;;;;;;;1.40;1.05;;;;;;;;;;5073660;28;20078;-45
2022/05/16 04:29:30;;;;;;;2.67;1.20;;;;;;;;;;5076330;28;20032;-46
2022/05/16 04:31:56;;;;;;;3.80;1.25;;;;;;;;;;5074260;28;20020;-45
2022/05/16 04:34:22;;;;;;;2.13;1.23;;;;;;;;;;5075090;28;20099;-46
2022/05/16 04:36:48;;;;;;;2.80;1.75;;;;;;;;;;5073542;28;20035;-47
2022/05/16 04:39:14;;;;;;;1.25;1.08;;;;;;;;;;5076062;28;20376;-45
2022/05/16 04:44:24;;;;;;;3.35;1.75;;;;;;;;;;5074262;28;20047;-45
2022/05/16 04:46:50;;;;;;;1.67;1.15;;;;;;;;;;5072991;28;20059;-49
2022/05/16 04:49:16;;;;;;;2.00;1.23;;;;;;;;;;5073273;28;20028;-51
2022/05/16 04:51:42;;;;;;;2.22;1.42;;;;;;;;;;5077553;28;20048;-47
2022/05/16 04:54:08;;;;;;;2.47;1.10;;;;;;;;;;5075252;28;20408;-44
2022/05/16 04:56:35;;;;;;;2.20;1.45;;;;;;;;;;5074199;28;20143;-50
2022/05/16 04:59:02;;;;;;;5.70;1.27;;;;;;;;;;5072470;28;20389;-48
2022/05/16 05:01:28;;;;;;;1.73;1.40;;;;;;;;;;5073131;28;20031;-45
2022/05/16 05:03:54;;;;;;;4.30;1.30;;;;;;;;;;5074641;28;20063;-47
2022/05/16 05:06:20;;;;;;;6.18;1.40;;;;;;;;;;5074511;28;20052;-45
2022/05/16 05:08:46;;;;;;;3.97;1.42;;;;;;;;;;5071154;28;20077;-46
2022/05/16 05:16:42;;;;;;;3.63;1.00;;;;;;;;;;5066278;28;20401;-45
2022/05/16 05:19:08;;;;;;;3.40;1.20;;;;;;;;;;5079576;28;20046;-47
2022/05/16 05:21:33;;;;;;;6.13;1.20;;;;;;;;;;5083618;28;20025;-45
2022/05/16 05:24:00;;;;;;;3.65;1.45;;;;;;;;;;5073603;28;20021;-45
2022/05/16 05:26:25;;;;;;;2.63;1.30;;;;;;;;;;5076799;28;20032;-45
2022/05/16 05:28:51;;;;;;;2.50;0.90;;;;;;;;;;5093225;28;20024;-44
2022/05/16 05:31:20;;;;;;;2.67;1.25;;;;;;;;;;5093067;28;20089;-44
2022/05/16 05:33:46;;;;;;;4.30;1.70;;;;;;;;;;5080096;28;20086;-45
2022/05/16 05:36:12;;;;;;;4.65;1.55;;;;;;;;;;5073582;28;20135;-45
2022/05/16 05:38:39;;;;;;;4.22;1.52;;;;;;;;;;5073795;28;20438;-52
2022/05/16 05:41:05;;;;;;;5.20;1.50;;;;;;;;;;5073736;28;20035;-44
2022/05/16 05:43:32;;;;;;;4.43;1.75;;;;;;;;;;5074477;28;20033;-48
2022/05/16 05:45:58;;;;;;;2.90;1.17;;;;;;;;;;5072501;28;20815;-44
2022/05/16 05:48:25;;;;;;;2.70;1.02;;;;;;;;;;5074161;28;20043;-47
2022/05/16 05:50:51;;;;;;;4.88;1.50;;;;;;;;;;5073007;28;20025;-46
2022/05/16 05:53:17;;;;;;;3.80;1.50;;;;;;;;;;5074046;28;20016;-48
2022/05/16 05:55:43;;;;;;;4.40;1.65;;;;;;;;;;5072962;28;20024;-50
2022/05/16 05:58:09;;;;;;;3.58;1.70;;;;;;;;;;5073562;28;20021;-47
2022/05/16 06:00:35;;;;;;;5.05;1.98;;;;;;;;;;5073754;28;20372;-47
2022/05/16 06:03:01;;;;;;;5.00;1.40;;;;;;;;;;5072637;28;20021;-45
2022/05/16 06:05:27;;;;;;;3.40;1.50;;;;;;;;;;5073310;28;20031;-47
2022/05/16 06:07:53;;;;;;;4.28;1.88;;;;;;;;;;5072824;28;20114;-47
2022/05/16 06:10:20;;;;;;;3.20;1.65;;;;;;;;;;5073645;28;20029;-45
2022/05/16 06:12:46;;;;;;;3.55;1.70;;;;;;;;;;5072679;28;20103;-47
2022/05/16 06:15:13;;;;;;;4.10;1.65;;;;;;;;;;5073391;28;20021;-46
2022/05/16 06:17:39;;;;;;;4.55;1.63;;;;;;;;;;5073011;28;20047;-47
2022/05/16 06:20:06;;;;;;;4.60;1.58;;;;;;;;;;5075428;28;20024;-46
2022/05/16 06:22:36;;;;;;;2.25;1.48;;;;;;;;;;5073070;28;20089;-47
2022/05/16 06:27:47;;;;;;;3.83;1.90;;;;;;;;;;5072185;28;20086;-47
2022/05/16 06:30:15;;;;;;;4.00;1.38;;;;;;;;;;5070748;28;20032;-46
2022/05/16 06:32:42;;;;;;;2.58;1.50;;;;;;;;;;5072435;28;20013;-54
2022/05/16 06:35:08;;;;;;;4.80;2.28;;;;;;;;;;5072488;28;20029;-48
2022/05/16 06:37:34;;;;;;;3.28;1.60;;;;;;;;;;5072728;28;20461;-48
2022/05/16 06:40:00;;;;;;;1.88;1.45;;;;;;;;;;5071963;28;20078;-47
2022/05/16 06:42:27;;;;;;;5.35;1.90;;;;;;;;;;5072801;28;20060;-46
2022/05/16 06:44:53;;;;;;;3.13;1.60;;;;;;;;;;5071980;28;20033;-47
2022/05/16 06:47:19;;;;;;;4.03;1.33;;;;;;;;;;5072674;28;20088;-47
2022/05/16 06:49:45;;;;;;;1.83;1.40;;;;;;;;;;5086359;28;20081;-49
2022/05/16 06:52:11;;;;;;;2.22;1.40;;;;;;;;;;5090594;28;20078;-48
2022/05/16 06:54:37;;;;;;;3.80;1.70;;;;;;;;;;5072482;28;20020;-49
2022/05/16 06:57:03;;;;;;;2.78;1.40;;;;;;;;;;5071655;28;20069;-50
2022/05/16 06:59:30;;;;;;;4.00;2.03;;;;;;;;;;5072528;28;20024;-46
2022/05/16 07:01:57;;;;;;;1.90;1.58;;;;;;;;;;5071693;28;20021;-49
2022/05/16 07:04:23;;;;;;;3.63;1.98;;;;;;;;;;5072293;28;20450;-46
2022/05/16 07:06:49;;;;;;;2.42;1.60;;;;;;;;;;5071092;28;20099;-46
2022/05/16 07:09:15;;;;;;;2.65;1.73;;;;;;;;;;5072023;28;20047;-47
2022/05/16 07:11:40;;;;;;;3.78;1.60;;;;;;;;;;5072111;28;20074;-47
2022/05/16 07:14:06;;;;;;;3.47;1.35;;;;;;;;;;5071132;28;20029;-49
2022/05/16 07:16:33;;;;;;;3.17;1.50;;;;;;;;;;5072195;28;20075;-47
2022/05/16 07:18:59;;;;;;;4.22;1.88;;;;;;;;;;5071415;28;20385;-48
2022/05/16 07:21:24;;;;;;;2.75;1.40;;;;;;;;;;5077193;28;20028;-48
2022/05/16 07:23:50;;;;;;;1.73;1.10;;;;;;;;;;5071503;28;20024;-47
2022/05/16 07:29:01;;;;;;;2.85;1.90;;;;;;;;;;5071010;28;20032;-49
2022/05/16 07:31:27;;;;;;;3.15;1.40;;;;;;;;;;5071443;28;20473;-51
2022/05/16 07:33:53;;;;;;;3.05;1.73;;;;;;;;;;5071404;28;20021;-47
2022/05/16 07:36:19;;;;;;;4.13;1.75;;;;;;;;;;5071786;28;20074;-47
2022/05/16 07:38:45;;;;;;;2.92;1.50;;;;;;;;;;5071449;28;20052;-55
2022/05/16 07:41:12;;;;;;;1.83;1.60;;;;;;;;;;5071858;28;20032;-48
2022/05/16 07:43:38;;;;;;;2.70;1.30;;;;;;;;;;5071896;28;20043;-47
2022/05/16 07:46:04;;;;;;;2.13;1.33;;;;;;;;;;5071145;28;20052;-49
2022/05/16 07:48:31;;;;;;;3.83;1.75;;;;;;;;;;5072069;28;20475;-49
2022/05/16 07:50:57;;;;;;;2.70;1.80;;;;;;;;;;5071021;28;20030;-48
2022/05/16 07:53:23;;;;;;;3.13;1.55;;;;;;;;;;5071526;28;20075;-48
2022/05/16 07:55:51;;;;;;;3.25;1.60;;;;;;;;;;5071221;28;20494;-47
2022/05/16 07:58:17;;;;;;;4.60;1.90;;;;;;;;;;5071572;28;20056;-47
2022/05/16 08:00:43;;;;;;;3.03;1.88;;;;;;;;;;5072082;28;20033;-48
2022/05/16 08:03:11;;;;;;;2.05;1.42;;;;;;;;;;5071235;28;20051;-50
2022/05/16 08:05:37;;;;;;;1.88;1.55;;;;;;;;;;5071797;28;20028;-47
2022/05/16 08:10:47;;;;;;;2.60;1.33;;;;;;;;;;5068927;28;20086;-56
2022/05/16 08:13:14;;;;;;;2.58;1.67;;;;;;;;;;5071560;28;20457;-47
2022/05/16 08:15:41;;;;;;;4.30;1.55;;;;;;;;;;5071792;28;20072;-47
2022/05/16 08:18:09;;;;;;;4.07;1.98;;;;;;;;;;5070774;28;20728;-47
2022/05/16 08:20:37;;;;;;;5.53;1.60;;;;;;;;;;5071500;28;20033;-48
2022/05/16 08:23:04;;;;;;;2.80;1.40;;;;;;;;;;5070700;28;20059;-47
2022/05/16 08:25:30;;;;;;;2.35;1.80;;;;;;;;;;5071730;28;20098;-47
2022/05/16 08:27:56;;;;;;;1.75;1.33;;;;;;;;;;5070576;28;20032;-53
2022/05/16 08:30:23;;;;;;;2.30;1.67;;;;;;;;;;5071647;28;20028;-49
2022/05/16 08:32:50;;;;;;;1.92;1.40;;;;;;;;;;5070708;28;20032;-55
2022/05/16 08:35:17;;;;;;;3.60;1.67;;;;;;;;;;5071571;28;20049;-51
2022/05/16 08:40:48;;;;;;;2.63;1.60;;;;;;;;;;5071696;28;20067;-51
2022/05/16 08:43:18;;;;;;;3.58;1.73;;;;;;;;;;5071193;28;20044;-47
2022/05/16 08:45:52;;;;;;;3.78;1.65;;;;;;;;;;5071565;28;20052;-48
2022/05/16 08:48:47;;;;;;;2.83;1.67;;;;;;;;;;5071391;28;20350;-48
2022/05/16 08:51:17;;;;;;;1.92;1.70;;;;;;;;;;5057787;28;20040;-47
2022/05/16 08:54:02;;;;;;;2.80;1.75;;;;;;;;;;5071898;28;20016;-47
2022/05/16 08:56:31;;;;;;;3.20;1.80;;;;;;;;;;5075111;28;20040;-52
2022/05/16 08:59:18;;;;;;;4.10;2.17;;;;;;;;;;5073907;28;20094;-49
2022/05/16 09:01:44;;;;;;;1.58;1.35;;;;;;;;;;5074735;28;20027;-48
2022/05/16 09:04:13;;;;;;;2.15;1.75;;;;;;;;;;5074020;28;20702;-50
2022/05/16 09:06:50;;;;;;;2.50;1.90;;;;;;;;;;5075061;28;20035;-49
2022/05/16 09:09:18;;;;;;;2.33;1.60;;;;;;;;;;5073637;28;20489;-50
2022/05/16 09:11:53;;;;;;;3.70;1.88;;;;;;;;;;5074773;28;20099;-50
2022/05/16 09:14:38;;;;;;;2.40;1.58;;;;;;;;;;5074760;28;20046;-49
2022/05/16 09:17:07;;;;;;;2.67;1.75;;;;;;;;;;5073569;28;20037;-48
2022/05/16 09:19:48;;;;;;;4.68;1.88;;;;;;;;;;5074239;28;20115;-51
2022/05/16 09:22:18;;;;;;;4.53;1.80;;;;;;;;;;5073979;28;20025;-47
2022/05/16 09:25:02;;;;;;;3.38;2.15;;;;;;;;;;5074204;28;20099;-48
2022/05/16 09:30:18;;;;;;;2.45;1.83;;;;;;;;;;5074248;28;20101;-47
2022/05/16 09:32:53;;;;;;;2.10;1.60;;;;;;;;;;5074476;28;20441;-47
2022/05/16 09:35:39;;;;;;;3.45;1.58;;;;;;;;;;5074199;28;20063;-51
2022/05/16 09:38:06;;;;;;;2.95;1.80;;;;;;;;;;5073047;28;20032;-50
2022/05/16 09:40:37;;;;;;;3.42;2.33;;;;;;;;;;5074248;28;20150;-48
2022/05/16 09:43:14;;;;;;;3.85;2.10;;;;;;;;;;5073431;28;20032;-47
2022/05/16 09:45:43;;;;;;;4.28;1.80;;;;;;;;;;5073806;28;20062;-46
2022/05/16 09:48:19;;;;;;;2.90;1.67;;;;;;;;;;5072947;28;20020;-48
2022/05/16 09:51:02;;;;;;;4.72;2.08;;;;;;;;;;5073892;28;20021;-47
2022/05/16 09:53:38;;;;;;;3.08;1.73;;;;;;;;;;5073862;28;20453;-47
2022/05/16 09:56:09;;;;;;;4.00;2.53;;;;;;;;;;5072461;28;20435;-47
2022/05/16 09:58:38;;;;;;;2.97;2.20;;;;;;;;;;5073764;28;20438;-48
2022/05/16 10:01:05;;;;;;;2.03;1.70;;;;;;;;;;5072352;28;20029;-48
2022/05/16 10:03:36;;;;;;;2.78;2.17;;;;;;;;;;5073574;28;20027;-49
2022/05/16 10:06:04;;;;;;;3.00;1.90;;;;;;;;;;5072781;28;20017;-48
2022/05/16 10:08:32;;;;;;;2.20;1.63;;;;;;;;;;5073677;28;20029;-47
2022/05/16 10:10:59;;;;;;;2.55;1.83;;;;;;;;;;5072172;28;20385;-50
2022/05/16 10:13:26;;;;;;;3.55;1.90;;;;;;;;;;5073342;28;20016;-49
2022/05/16 10:15:54;;;;;;;2.03;1.55;;;;;;;;;;5072104;28;20164;-54
2022/05/16 10:18:21;;;;;;;2.80;1.88;;;;;;;;;;5073033;28;20032;-52
2022/05/16 10:20:51;;;;;;;3.15;2.28;;;;;;;;;;5072100;28;20156;-52
2022/05/16 10:23:37;;;;;;;2.63;1.88;;;;;;;;;;5072587;28;20058;-47
2022/05/16 10:26:06;;;;;;;3.03;2.00;;;;;;;;;;5072164;28;20031;-49
2022/05/16 10:28:33;;;;;;;2.53;2.00;;;;;;;;;;5071859;28;20380;-48
2022/05/16 10:33:45;;;;;;;3.55;1.67;;;;;;;;;;5072985;28;20504;-47
2022/05/16 10:36:24;;;;;;;3.22;2.40;;;;;;;;;;5071899;28;20435;-49
2022/05/16 10:38:54;;;;;;;2.63;1.80;;;;;;;;;;5072843;28;20033;-50
2022/05/16 10:41:25;;;;;;;2.80;2.33;;;;;;;;;;5072187;28;20029;-48
2022/05/16 10:44:02;;;;;;;3.92;2.25;;;;;;;;;;5073099;28;20025;-47
2022/05/16 10:46:33;;;;;;;3.95;2.25;;;;;;;;;;5072733;28;20133;-47
2022/05/16 10:49:02;;;;;;;3.15;1.83;;;;;;;;;;5071848;28;20024;-51
2022/05/16 10:51:36;;;;;;;4.32;2.00;;;;;;;;;;5052805;28;20025;-47
2022/05/16 10:54:02;;;;;;;4.13;2.10;;;;;;;;;;5052151;28;20028;-49
2022/05/16 10:56:31;;;;;;;2.53;2.03;;;;;;;;;;5052500;28;20095;-48
2022/05/16 10:59:06;;;;;;;2.05;1.77;;;;;;;;;;5052195;28;20025;-54
2022/05/16 11:01:37;;;;;;;2.50;1.63;;;;;;;;;;5056121;28;20043;-48
2022/05/16 11:04:22;;;;;;;3.33;2.05;;;;;;;;;;5071826;28;20024;-50
2022/05/16 11:06:53;;;;;;;2.40;2.10;;;;;;;;;;5072307;28;20043;-52
2022/05/16 11:09:38;;;;;;;2.28;1.77;;;;;;;;;;5071515;28;20491;-48
2022/05/16 11:12:13;;;;;;;3.20;2.25;;;;;;;;;;5051505;28;20032;-47
2022/05/16 11:14:47;;;;;;;3.53;2.08;;;;;;;;;;5052480;28;20017;-47
2022/05/16 11:17:24;;;;;;;5.68;2.40;;;;;;;;;;5051382;28;20045;-48
2022/05/16 11:19:53;;;;;;;4.40;1.75;;;;;;;;;;5054987;28;20028;-47
2022/05/16 11:22:26;;;;;;;2.58;1.80;;;;;;;;;;5071569;28;20078;-48
2022/05/16 11:25:01;;;;;;;2.70;2.10;;;;;;;;;;5072505;28;20042;-49
2022/05/16 11:27:46;;;;;;;2.15;1.95;;;;;;;;;;5071777;28;20548;-47
2022/05/16 11:30:33;;;;;;;4.30;2.13;;;;;;;;;;5071150;28;20024;-48
2022/05/16 11:33:14;;;;;;;2.25;1.90;;;;;;;;;;5064893;28;20373;-56
2022/05/16 11:35:45;;;;;;;3.27;2.10;;;;;;;;;;5072228;28;20378;-47
2022/05/16 11:38:32;;;;;;;3.45;2.53;;;;;;;;;;5071296;28;20040;-47
2022/05/16 11:40:58;;;;;;;3.15;2.60;;;;;;;;;;5051796;28;20040;-55
2022/05/16 11:43:24;;;;;;;2.30;2.00;;;;;;;;;;5051797;28;20024;-48
2022/05/16 11:45:57;;;;;;;4.55;2.42;;;;;;;;;;5052158;28;20056;-47
2022/05/16 11:48:41;;;;;;;2.97;2.05;;;;;;;;;;5051222;28;20040;-48
2022/05/16 11:51:26;;;;;;;2.92;1.95;;;;;;;;;;5060224;28;20079;-48
2022/05/16 11:53:57;;;;;;;3.65;2.17;;;;;;;;;;5071982;28;20033;-47
2022/05/16 12:02:21;;;;;;;2.33;2.13;;;;;;;;;;5070688;28;20496;-56
2022/05/16 12:04:49;;;;;;;3.33;2.28;;;;;;;;;;5051593;28;20029;-48
2022/05/16 12:07:23;;;;;;;3.83;1.95;;;;;;;;;;5050795;28;20021;-50
2022/05/16 12:09:52;;;;;;;2.30;1.88;;;;;;;;;;5051418;28;20378;-52
2022/05/16 12:12:32;;;;;;;4.18;2.30;;;;;;;;;;5050527;28;20933;-48
2022/05/16 12:15:11;;;;;;;2.83;2.15;;;;;;;;;;5051302;28;20029;-57
2022/05/16 12:17:38;;;;;;;3.15;2.38;;;;;;;;;;5051538;28;20041;-51
2022/05/16 12:20:13;;;;;;;3.60;2.10;;;;;;;;;;5052331;28;20036;-53
2022/05/16 12:22:39;;;;;;;3.47;2.30;;;;;;;;;;5071871;28;20036;-48
2022/05/16 12:25:10;;;;;;;5.85;2.50;;;;;;;;;;5070591;28;20024;-49
2022/05/16 12:27:38;;;;;;;3.28;1.92;;;;;;;;;;5077883;28;20039;-49
2022/05/16 12:30:08;;;;;;;3.13;2.22;;;;;;;;;;5078038;28;20029;-49
2022/05/16 12:32:34;;;;;;;3.63;1.85;;;;;;;;;;5075371;28;20104;-48
2022/05/16 12:35:01;;;;;;;3.25;2.28;;;;;;;;;;5074975;28;20487;-58
2022/05/16 12:37:27;;;;;;;6.47;2.38;;;;;;;;;;5075240;28;20033;-52
2022/05/16 12:40:03;;;;;;;3.45;2.13;;;;;;;;;;5075112;28;20040;-50
2022/05/16 12:42:41;;;;;;;5.20;1.83;;;;;;;;;;5075397;28;20024;-52
2022/05/16 12:45:26;;;;;;;4.70;1.95;;;;;;;;;;5074316;28;20078;-51
2022/05/16 12:48:10;;;;;;;3.20;1.60;;;;;;;;;;5075241;28;20037;-49
2022/05/16 12:50:54;;;;;;;2.65;1.80;;;;;;;;;;5064746;28;20024;-47
2022/05/16 12:53:23;;;;;;;4.30;1.60;;;;;;;;;;5062245;28;20660;-48
2022/05/16 12:56:04;;;;;;;3.13;1.63;;;;;;;;;;5075224;28;20025;-51
2022/05/16 12:58:40;;;;;;;2.92;2.22;;;;;;;;;;5074463;28;20108;-49
2022/05/16 13:01:14;;;;;;;2.40;1.60;;;;;;;;;;5074171;28;20029;-52
2022/05/16 13:03:52;;;;;;;3.67;1.80;;;;;;;;;;5074835;28;20090;-52
2022/05/16 13:06:21;;;;;;;2.53;1.75;;;;;;;;;;5073955;28;20027;-49
2022/05/16 13:08:50;;;;;;;1.98;1.50;;;;;;;;;;5074700;28;20025;-47
2022/05/16 13:11:25;;;;;;;3.08;1.90;;;;;;;;;;5073701;28;20361;-47
2022/05/16 13:14:10;;;;;;;1.98;1.40;;;;;;;;;;5074343;28;20421;-49
2022/05/16 13:16:40;;;;;;;1.30;1.20;;;;;;;;;;5074702;28;20040;-51
2022/05/16 13:19:12;;;;;;;2.42;1.80;;;;;;;;;;5073562;28;20016;-47
2022/05/16 13:21:52;;;;;;;3.95;2.45;;;;;;;;;;5079772;28;20035;-47
2022/05/16 13:24:18;;;;;;;2.10;1.33;;;;;;;;;;5073650;28;20029;-47
2022/05/16 13:29:34;;;;;;;4.43;1.90;;;;;;;;;;5073758;28;20082;-47
2022/05/16 13:32:07;;;;;;;3.22;1.95;;;;;;;;;;5073845;28;20024;-56
2022/05/16 13:34:35;;;;;;;3.35;2.17;;;;;;;;;;5074083;28;20024;-48
2022/05/16 13:37:02;;;;;;;2.90;1.52;;;;;;;;;;5073341;28;20059;-57
2022/05/16 13:39:34;;;;;;;1.67;1.38;;;;;;;;;;5073778;28;20043;-47
2022/05/16 13:42:00;;;;;;;;;;;;;;;;;;5074499;28;20025;-57
2022/05/16 13:44:33;;;;;;;3.05;1.70;;;;;;;;;;5074830;28;20257;-49
2022/05/16 13:47:01;;;;;;;2.33;1.42;;;;;;;;;;5090250;28;20047;-55
2022/05/16 13:49:27;;;;;;;1.65;1.40;;;;;;;;;;5073586;28;20024;-48
2022/05/16 13:51:53;;;;;;;5.45;2.80;;;;;;;;;;5092035;28;20460;-49
2022/05/16 13:54:26;;;;;;;3.70;1.88;;;;;;;;;;5076687;28;20025;-49
2022/05/16 13:56:57;;;;;;;2.70;1.90;;;;;;;;;;5073915;28;20060;-49
2022/05/16 13:59:24;;;;;;;4.50;1.90;;;;;;;;;;5072260;28;20355;-49
2022/05/16 14:02:10;;;;;;;2.53;1.67;;;;;;;;;;5073231;28;20048;-48
2022/05/16 14:04:47;;;;;;;4.35;1.60;;;;;;;;;;5073418;28;20040;-48
2022/05/16 14:07:14;;;;;;;5.43;2.08;;;;;;;;;;5072743;28;20488;-45
2022/05/16 14:09:59;;;;;;;3.42;1.70;;;;;;;;;;5073385;28;20029;-45
2022/05/16 14:12:29;;;;;;;3.17;1.55;;;;;;;;;;5072079;28;20017;-47
2022/05/16 14:14:56;;;;;;;3.50;1.60;;;;;;;;;;5073663;28;20040;-46
2022/05/16 14:17:36;;;;;;;3.60;1.52;;;;;;;;;;5072690;28;20129;-49
2022/05/16 14:20:12;;;;;;;2.38;1.50;;;;;;;;;;5075804;28;20485;-54
2022/05/16 14:22:43;;;;;;;3.90;1.60;;;;;;;;;;5093424;28;20021;-46
2022/05/16 14:25:11;;;;;;;4.60;1.92;;;;;;;;;;5071725;28;20028;-46
2022/05/16 14:27:40;;;;;;;5.95;1.70;;;;;;;;;;5073335;28;20031;-46
2022/05/16 14:30:26;;;;;;;3.45;1.83;;;;;;;;;;5072290;28;20021;-46
2022/05/16 14:32:59;;;;;;;3.53;1.83;;;;;;;;;;5072362;28;20021;-46
2022/05/16 14:35:30;;;;;;;3.83;1.52;;;;;;;;;;5072522;28;20104;-47
2022/05/16 14:38:00;;;;;;;4.18;1.90;;;;;;;;;;5072998;28;20067;-50
2022/05/16 14:40:34;;;;;;;2.27;1.73;;;;;;;;;;5072581;28;20081;-47
2022/05/16 14:43:02;;;;;;;3.25;1.65;;;;;;;;;;5073137;28;20079;-50
2022/05/16 14:48:12;;;;;;;2.33;1.83;;;;;;;;;;5071571;28;20504;-47
2022/05/16 14:50:38;;;;;;;3.83;2.08;;;;;;;;;;5072689;28;20016;-53
2022/05/16 14:53:15;;;;;;;3.08;2.08;;;;;;;;;;5071945;28;20526;-55
2022/05/16 14:55:42;;;;;;;5.55;2.63;;;;;;;;;;5071984;28;20032;-48
2022/05/16 14:58:09;;;;;;;3.90;1.85;;;;;;;;;;5071611;28;20028;-50
2022/05/16 15:06:05;;;;;;;4.82;1.70;;;;;;;;;;5071893;28;20385;-53
2022/05/16 15:08:33;;;;;;;7.60;2.30;;;;;;;;;;5072256;28;20081;-47
2022/05/16 15:10:59;;;;;;;7.13;1.75;;;;;;;;;;5052882;28;20029;-46
2022/05/16 15:13:27;;;;;;;3.08;1.30;;;;;;;;;;5051833;28;20210;-46
2022/05/16 15:15:53;;;;;;;3.08;1.63;;;;;;;;;;5052241;28;20033;-47
2022/05/16 15:18:20;;;;;;;3.40;1.33;;;;;;;;;;5055268;28;20028;-46
2022/05/16 15:20:48;;;;;;;4.75;1.65;;;;;;;;;;5072252;28;20173;-47
2022/05/16 15:23:15;;;;;;;4.38;1.70;;;;;;;;;;5071217;28;20036;-47
2022/05/16 15:25:42;;;;;;;3.63;1.73;;;;;;;;;;5072321;28;20095;-47
2022/05/16 15:28:09;;;;;;;3.53;2.15;;;;;;;;;;5071143;28;20111;-55
2022/05/16 15:30:35;;;;;;;3.03;1.70;;;;;;;;;;5071862;28;20048;-45
2022/05/16 15:33:01;;;;;;;1.83;1.52;;;;;;;;;;5072097;28;20024;-47
2022/05/16 15:35:27;;;;;;;3.95;1.50;;;;;;;;;;5071423;28;20027;-45
2022/05/16 15:37:54;;;;;;;4.10;1.70;;;;;;;;;;5071898;28;20044;-46
2022/05/16 15:40:20;;;;;;;3.63;1.75;;;;;;;;;;5069255;28;20032;-48
2022/05/16 15:42:46;;;;;;;6.32;2.08;;;;;;;;;;5072137;28;20047;-47
2022/05/16 15:45:13;;;;;;;5.75;2.38;;;;;;;;;;5070824;28;20024;-48
2022/05/16 15:47:47;;;;;;;3.88;2.08;;;;;;;;;;5072026;28;20082;-47